Date,TemperatureHighF,TemperatureAvgF,TemperatureLowF,DewpointHighF,DewpointAvgF,DewpointLowF,HumidityHigh,HumidityAvg,HumidityLow,PressureMaxIn,PressureMinIn,WindSpeedMaxMPH,WindSpeedAvgMPH,GustSpeedMaxMPH,PrecipitationSumIn
2013-3-1,77.4,55.5,30.9,74.3,29.9,0.3,104,40,26,30.31,30.07,12,3,12,0.00
2013-3-2,72.9,54.1,33.6,53.4,25.4,10.7,90,33,26,30.45,30.16,14,3,14,0.00
2013-3-3,83.3,58.4,34.7,80.0,28.9,9.2,93,38,11,30.28,29.95,14,4,14,0.00
2013-3-4,94.5,69.9,46.8,87.8,29.5,4.8,102,28,11,29.95,29.72,13,3,13,0.00
2013-3-5,72.7,59.4,42.4,33.6,10.4,-2.0,30,14,11,30.37,29.77,28,6,28,0.00
2013-3-6,68.7,50.3,30.7,24.8,4.5,-7.9,57,16,12,30.45,30.22,15,3,15,0.00
2013-3-7,74.8,58.5,38.3,58.2,27.2,-1.1,90,35,11,30.22,30.07,13,3,13,0.00
2013-3-8,74.8,67.4,63.0,99.9,55.1,48.1,77,60,50,30.13,29.98,17,6,17,0.00
2013-3-9,86.7,71.7,65.3,99.9,58.3,48.9,94,62,40,30.04,29.60,20,7,20,0.00
2013-3-10,75.9,66.5,52.5,99.9,53.1,42.2,94,57,50,30.16,29.63,17,6,17,0.00
2013-3-11,76.5,56.7,37.2,99.9,37.8,17.9,97,52,21,30.22,29.92,14,3,14,0.00
2013-3-12,86.7,61.8,35.4,84.8,34.9,7.7,98,42,21,30.22,30.01,10,3,10,0.00
2013-3-13,83.1,64.2,44.2,81.6,40.3,15.5,98,47,21,30.45,30.19,10,4,10,0.00
2013-3-14,85.5,64.4,43.3,99.9,39.1,10.7,103,29,11,30.42,30.13,13,4,13,0.00
2013-3-15,87.3,70.9,48.2,69.8,33.7,8.1,96,30,11,30.28,29.95,14,4,14,0.00
2013-3-16,90.9,71.7,54.7,73.5,32.5,9.9,93,28,11,30.01,29.72,15,5,15,0.00
2013-3-17,95.4,76.3,63.5,75.8,41.6,14.1,93,34,11,29.83,29.60,10,3,10,0.00
2013-3-18,101.8,77.2,65.8,83.1,32.7,14.0,96,22,11,29.89,29.72,16,4,16,0.00
2013-3-19,87.1,72.2,55.6,86.1,44.1,11.7,99,46,11,30.01,29.77,14,5,14,0.00
2013-3-20,78.3,68.3,61.3,99.9,46.5,31.2,104,47,28,30.22,29.89,20,7,20,0.00
2013-3-21,79.0,64.9,52.9,99.9,44.6,33.5,92,47,35,30.04,29.66,14,4,14,0.00
2013-3-22,91.6,74.2,62.6,87.1,54.0,16.3,100,52,11,29.75,29.60,9,2,9,0.00
2013-3-23,88.5,71.7,58.1,74.8,31.3,11.3,83,28,11,29.77,29.57,13,4,13,0.00
2013-3-24,67.8,59.2,49.8,99.9,34.4,12.4,57,38,13,30.19,29.69,21,7,21,0.00
2013-3-25,67.5,52.6,34.9,43.1,20.4,7.3,71,29,23,30.37,30.07,15,5,15,0.00
2013-3-26,73.6,55.0,32.2,67.7,21.9,-5.3,90,29,11,30.48,30.16,12,4,12,0.00
2013-3-27,72.3,58.0,41.0,59.6,23.9,11.1,94,28,12,30.37,30.13,13,4,13,0.00
2013-3-28,72.1,65.3,58.5,99.9,32.7,9.4,95,29,14,30.25,30.04,13,4,13,0.00
2013-3-29,85.5,70.9,59.4,99.9,52.0,35.3,96,54,31,30.19,30.01,14,4,14,0.00
2013-3-30,91.8,75.0,64.6,99.9,51.2,14.0,87,46,11,30.13,29.89,13,4,13,0.00
2013-3-31,90.5,73.3,65.3,79.1,32.4,13.3,93,27,11,29.95,29.81,16,4,16,0.00